Time;durP1;ratioP1;P1;durP2;ratioP2;P2;SDS_P1;SDS_P2;PMS_P1;PMS_P2;Temp;Humidity;BMP_temperature;BMP_pressure;BME280_temperature;BME280_humidity;BME280_pressure;Samples;Min_cycle;Max_cycle;Signal;HPM_P1;HPM_P2
2023/10/25 00:02:24;;;;;;;3.07;2.77;;;9.60;99.90;;;;;;5062655;28;20668;-59
2023/10/25 00:04:56;;;;;;;2.83;2.63;;;9.60;99.90;;;;;;5068502;28;20281;-59
2023/10/25 00:07:22;;;;;;;2.83;2.53;;;9.60;99.90;;;;;;5068042;28;20178;-59
2023/10/25 00:09:48;;;;;;;4.57;2.80;;;9.60;99.90;;;;;;5067081;28;20456;-59
2023/10/25 00:12:13;;;;;;;2.57;2.37;;;9.60;99.90;;;;;;5062520;28;20550;-59
2023/10/25 00:14:39;;;;;;;2.73;2.53;;;9.60;99.90;;;;;;5068405;28;20497;-59
2023/10/25 00:17:05;;;;;;;2.97;2.77;;;9.50;99.90;;;;;;5069043;28;20175;-59
2023/10/25 00:19:30;;;;;;;4.97;2.27;;;9.50;99.90;;;;;;5064993;28;20291;-59
2023/10/25 00:21:56;;;;;;;5.43;2.53;;;9.50;99.90;;;;;;5060694;28;20229;-59
2023/10/25 00:24:22;;;;;;;7.07;2.40;;;9.50;99.90;;;;;;5065141;28;20549;-59
2023/10/25 00:26:47;;;;;;;2.60;2.40;;;9.50;99.90;;;;;;5066502;28;20216;-58
2023/10/25 00:29:13;;;;;;;6.13;2.40;;;9.40;99.90;;;;;;5068004;28;20206;-60
2023/10/25 00:31:38;;;;;;;2.40;2.20;;;9.40;99.90;;;;;;5064916;28;20174;-59
2023/10/25 00:34:04;;;;;;;2.50;2.30;;;9.40;99.90;;;;;;5064879;28;20756;-59
2023/10/25 00:36:30;;;;;;;2.90;2.70;;;9.40;99.90;;;;;;5067805;28;20174;-60
2023/10/25 00:38:55;;;;;;;2.57;2.37;;;9.40;99.90;;;;;;5067490;28;20270;-60
2023/10/25 00:41:21;;;;;;;2.57;2.37;;;9.40;99.90;;;;;;5062435;28;20629;-59
2023/10/25 00:43:46;;;;;;;3.37;2.90;;;9.40;99.90;;;;;;5060985;28;20182;-59
2023/10/25 00:46:15;;;;;;;3.13;2.83;;;9.40;99.90;;;;;;5067658;28;20179;-58
2023/10/25 00:48:46;;;;;;;3.93;3.03;;;9.40;99.90;;;;;;5069505;28;20597;-59
2023/10/25 00:51:13;;;;;;;3.67;3.20;;;9.40;99.90;;;;;;5063266;28;20492;-60
2023/10/25 00:53:41;;;;;;;3.07;2.87;;;9.40;99.90;;;;;;5065218;28;20850;-59
2023/10/25 00:56:10;;;;;;;3.40;3.10;;;9.40;99.90;;;;;;5065412;28;20432;-59
2023/10/25 00:58:37;;;;;;;3.57;3.27;;;9.40;99.90;;;;;;5065611;28;21157;-59
2023/10/25 01:01:04;;;;;;;4.90;3.50;;;9.40;99.90;;;;;;5065287;28;20536;-58
2023/10/25 01:03:29;;;;;;;6.37;4.13;;;9.40;99.90;;;;;;5058582;28;21123;-59
2023/10/25 01:05:55;;;;;;;7.60;4.53;;;9.50;99.90;;;;;;5068151;28;20436;-59
2023/10/25 01:08:22;;;;;;;6.90;5.03;;;9.40;99.90;;;;;;5063247;28;20175;-59
2023/10/25 01:10:52;;;;;;;6.87;5.40;;;9.50;99.90;;;;;;5065389;28;20208;-59
2023/10/25 01:13:18;;;;;;;5.83;4.53;;;9.40;99.90;;;;;;5066497;28;20417;-61
2023/10/25 01:15:45;;;;;;;7.73;4.77;;;9.50;99.90;;;;;;5062448;28;20444;-58
2023/10/25 01:18:11;;;;;;;4.40;3.97;;;9.40;99.90;;;;;;5064946;28;20466;-59
2023/10/25 01:20:36;;;;;;;9.93;4.37;;;9.50;99.90;;;;;;5062556;28;22378;-59
2023/10/25 01:23:02;;;;;;;5.17;3.97;;;9.50;99.90;;;;;;5067548;28;20174;-59
2023/10/25 01:25:28;;;;;;;6.83;4.00;;;9.40;99.90;;;;;;5066805;28;20178;-59
2023/10/25 01:27:54;;;;;;;6.17;5.00;;;9.50;99.90;;;;;;5064880;28;20181;-59
2023/10/25 01:30:20;;;;;;;6.80;5.30;;;9.50;99.90;;;;;;5064113;28;20218;-59
2023/10/25 01:32:46;;;;;;;11.60;5.37;;;9.50;99.90;;;;;;5066438;28;20931;-59
2023/10/25 01:35:11;;;;;;;7.20;4.93;;;9.50;99.90;;;;;;5061666;28;20429;-58
2023/10/25 01:37:37;;;;;;;7.67;5.47;;;9.50;99.90;;;;;;5065499;28;20650;-60
2023/10/25 01:40:04;;;;;;;7.60;5.30;;;9.50;99.90;;;;;;5069439;28;20206;-57
2023/10/25 01:42:30;;;;;;;6.77;4.87;;;9.50;99.90;;;;;;5064246;28;20224;-59
2023/10/25 01:44:55;;;;;;;6.90;4.10;;;9.50;99.90;;;;;;5062930;28;20440;-60
2023/10/25 01:47:21;;;;;;;6.50;5.03;;;9.50;99.90;;;;;;5066782;28;20548;-59
2023/10/25 01:49:47;;;;;;;10.47;4.43;;;9.50;99.90;;;;;;5065692;28;20212;-60
2023/10/25 01:52:12;;;;;;;6.23;4.93;;;9.60;99.90;;;;;;5064012;28;20733;-60
2023/10/25 01:54:40;;;;;;;10.70;5.30;;;9.60;99.90;;;;;;5066255;28;20174;-59
2023/10/25 01:57:06;;;;;;;7.50;5.07;;;9.50;99.90;;;;;;5067370;28;20167;-59
2023/10/25 01:59:31;;;;;;;12.70;4.90;;;9.50;99.90;;;;;;5064104;28;20513;-59
2023/10/25 02:01:57;;;;;;;8.30;4.60;;;9.50;99.90;;;;;;5067006;28;20435;-59
2023/10/25 02:04:23;;;;;;;8.73;4.93;;;9.50;99.90;;;;;;5067315;28;20292;-59
2023/10/25 02:06:51;;;;;;;7.10;4.97;;;9.50;99.90;;;;;;5066209;28;20183;-58
2023/10/25 02:09:18;;;;;;;8.93;4.70;;;9.50;99.90;;;;;;5063026;28;20194;-58
2023/10/25 02:11:43;;;;;;;10.27;5.50;;;9.50;99.90;;;;;;5059587;28;20460;-59
2023/10/25 02:14:09;;;;;;;9.60;6.47;;;9.50;99.90;;;;;;5067500;28;20945;-59
2023/10/25 02:16:34;;;;;;;7.87;4.90;;;9.60;99.90;;;;;;5063990;28;20849;-59
2023/10/25 02:19:00;;;;;;;12.53;6.80;;;9.60;99.90;;;;;;5067310;28;20186;-58
2023/10/25 02:21:26;;;;;;;7.00;5.43;;;9.60;99.90;;;;;;5063025;28;20680;-59
2023/10/25 02:23:53;;;;;;;10.50;6.47;;;9.60;99.90;;;;;;5063565;28;20197;-59
2023/10/25 02:26:19;;;;;;;8.20;5.83;;;9.60;99.90;;;;;;5065950;28;20574;-58
2023/10/25 02:28:45;;;;;;;8.47;6.00;;;9.60;99.90;;;;;;5063578;28;20559;-59
2023/10/25 02:31:10;;;;;;;8.70;6.20;;;9.60;99.90;;;;;;5065027;28;20447;-58
2023/10/25 02:33:36;;;;;;;10.60;7.10;;;9.60;99.90;;;;;;5067753;28;20178;-58
2023/10/25 02:36:02;;;;;;;10.50;7.20;;;9.60;99.90;;;;;;5064884;28;20178;-59
2023/10/25 02:38:27;;;;;;;12.10;7.90;;;9.60;99.90;;;;;;5065886;28;20896;-60
2023/10/25 02:40:53;;;;;;;12.30;7.60;;;9.60;99.90;;;;;;5064196;28;20572;-59
2023/10/25 02:43:19;;;;;;;11.37;6.50;;;9.60;99.90;;;;;;5064929;28;20236;-59
2023/10/25 02:45:44;;;;;;;11.30;7.43;;;9.60;99.90;;;;;;5064893;28;20186;-59
2023/10/25 02:48:13;;;;;;;9.67;6.80;;;9.60;99.90;;;;;;5066131;28;20182;-59
2023/10/25 02:50:39;;;;;;;12.20;7.73;;;9.60;99.90;;;;;;5062671;28;20199;-59
2023/10/25 02:53:05;;;;;;;11.77;7.73;;;9.60;99.90;;;;;;5064226;28;20864;-60
2023/10/25 02:55:31;;;;;;;15.37;8.73;;;9.60;99.90;;;;;;5063942;28;20519;-59
2023/10/25 02:57:57;;;;;;;11.60;7.33;;;9.60;99.90;;;;;;5063258;28;20661;-59
2023/10/25 03:00:23;;;;;;;14.30;7.30;;;9.60;99.90;;;;;;5063055;28;20487;-59
2023/10/25 03:02:49;;;;;;;11.30;8.07;;;9.60;99.90;;;;;;5059125;28;20546;-59
2023/10/25 03:05:14;;;;;;;10.33;7.80;;;9.60;99.90;;;;;;5060326;28;20527;-59
2023/10/25 03:07:40;;;;;;;12.07;7.43;;;9.60;99.90;;;;;;5062245;28;20204;-60
2023/10/25 03:10:06;;;;;;;8.70;6.70;;;9.60;99.90;;;;;;5061863;28;20209;-60
2023/10/25 03:12:32;;;;;;;7.37;5.70;;;9.60;99.90;;;;;;5060383;28;20213;-58
2023/10/25 03:14:58;;;;;;;20.10;6.00;;;9.60;99.90;;;;;;5056735;28;20456;-60
2023/10/25 03:17:24;;;;;;;8.00;6.30;;;9.60;99.90;;;;;;5064195;28;20458;-59
2023/10/25 03:19:49;;;;;;;7.23;5.80;;;9.60;99.90;;;;;;5067564;28;20553;-59
2023/10/25 03:22:15;;;;;;;5.93;5.20;;;9.60;99.90;;;;;;5066228;28;20186;-59
2023/10/25 03:24:41;;;;;;;6.77;6.07;;;9.60;99.90;;;;;;5068105;28;20182;-60
2023/10/25 03:27:07;;;;;;;7.60;6.17;;;9.60;99.90;;;;;;5069863;28;20719;-60
2023/10/25 03:29:36;;;;;;;8.20;6.53;;;9.60;99.90;;;;;;5063137;28;20203;-60
2023/10/25 03:32:02;;;;;;;9.07;7.03;;;9.60;99.90;;;;;;5063430;28;20425;-58
2023/10/25 03:34:28;;;;;;;9.00;7.40;;;9.60;99.90;;;;;;5069599;28;20794;-59
2023/10/25 03:36:54;;;;;;;8.57;6.27;;;9.60;99.90;;;;;;5073082;28;20431;-59
2023/10/25 03:39:19;;;;;;;9.23;6.13;;;9.60;99.90;;;;;;5071189;28;20191;-59
2023/10/25 03:41:45;;;;;;;7.90;6.70;;;9.50;99.90;;;;;;5066420;28;20174;-59
2023/10/25 03:44:11;;;;;;;12.10;7.27;;;9.50;99.90;;;;;;5068429;28;20209;-59
2023/10/25 03:46:38;;;;;;;8.27;7.17;;;9.50;99.90;;;;;;5070528;28;20589;-59
2023/10/25 03:49:04;;;;;;;8.20;6.90;;;9.50;99.90;;;;;;5070776;28;20538;-59
2023/10/25 03:51:30;;;;;;;8.40;6.60;;;9.50;99.90;;;;;;5064813;28;20567;-60
2023/10/25 03:53:55;;;;;;;10.10;7.77;;;9.40;99.90;;;;;;5063746;28;20258;-60
2023/10/25 03:56:21;;;;;;;9.00;7.50;;;9.40;99.90;;;;;;5068462;28;21070;-59
2023/10/25 03:58:46;;;;;;;7.87;6.70;;;9.40;99.90;;;;;;5057620;28;20265;-59
2023/10/25 04:01:13;;;;;;;7.83;6.40;;;9.40;99.90;;;;;;5068435;28;20202;-58
2023/10/25 04:03:39;;;;;;;7.90;6.60;;;9.40;99.90;;;;;;5067534;28;20183;-58
2023/10/25 04:06:05;;;;;;;7.60;6.80;;;9.40;99.90;;;;;;5069272;28;21120;-59
2023/10/25 04:08:31;;;;;;;7.30;5.87;;;9.40;99.90;;;;;;5060972;28;20689;-59
2023/10/25 04:10:57;;;;;;;10.03;6.07;;;9.40;99.90;;;;;;5062680;28;20452;-55
2023/10/25 04:13:23;;;;;;;7.73;6.43;;;9.40;99.90;;;;;;5068043;28;20425;-56
2023/10/25 04:15:59;;;;;;;7.60;6.20;;;9.40;99.90;;;;;;5067932;28;20431;-53
2023/10/25 04:18:27;;;;;;;7.80;6.50;;;9.40;99.90;;;;;;5055345;28;20443;-59
2023/10/25 04:20:54;;;;;;;10.70;7.70;;;9.40;99.90;;;;;;5066456;28;21016;-60
2023/10/25 04:23:20;;;;;;;10.50;7.43;;;9.40;99.90;;;;;;5059450;28;20429;-60
2023/10/25 04:25:45;;;;;;;8.37;7.00;;;9.40;99.90;;;;;;5065356;28;20915;-60
2023/10/25 04:28:13;;;;;;;9.30;7.23;;;9.40;99.90;;;;;;5058433;28;20175;-59
2023/10/25 04:30:38;;;;;;;10.77;7.77;;;9.50;99.90;;;;;;5065108;28;20551;-60
2023/10/25 04:33:04;;;;;;;10.03;7.23;;;9.40;99.90;;;;;;5062150;28;21201;-59
2023/10/25 04:35:29;;;;;;;9.10;7.47;;;9.40;99.90;;;;;;5061238;28;20236;-60
2023/10/25 04:37:55;;;;;;;11.97;7.80;;;9.40;99.90;;;;;;5064935;28;20257;-60
2023/10/25 04:40:24;;;;;;;11.20;7.50;;;9.40;99.90;;;;;;5054949;28;20210;-61
2023/10/25 04:42:55;;;;;;;11.27;8.00;;;9.40;99.90;;;;;;5059043;28;20602;-60
2023/10/25 04:45:21;;;;;;;10.20;7.40;;;9.40;99.90;;;;;;5060477;28;20960;-60
2023/10/25 04:47:49;;;;;;;9.33;7.27;;;9.40;99.90;;;;;;5059513;28;20471;-59
2023/10/25 04:50:15;;;;;;;7.80;6.67;;;9.40;99.90;;;;;;5055784;28;20210;-61
2023/10/25 04:52:40;;;;;;;10.27;6.73;;;9.40;99.90;;;;;;5059988;28;20805;-58
2023/10/25 04:55:07;;;;;;;9.57;7.20;;;9.30;99.90;;;;;;5065681;28;20673;-60
2023/10/25 04:57:35;;;;;;;9.60;6.80;;;9.30;99.90;;;;;;5059437;28;20178;-59
2023/10/25 05:00:01;;;;;;;11.93;7.50;;;9.30;99.90;;;;;;5062317;28;20444;-59
2023/10/25 05:02:26;;;;;;;11.50;7.43;;;9.30;99.90;;;;;;5067635;28;20536;-59
2023/10/25 05:04:52;;;;;;;9.20;7.10;;;9.30;99.90;;;;;;5061521;28;20740;-59
2023/10/25 05:07:18;;;;;;;8.90;7.00;;;9.40;99.90;;;;;;5065243;28;20183;-61
2023/10/25 05:09:44;;;;;;;11.60;7.47;;;9.40;99.90;;;;;;5066214;28;20803;-59
2023/10/25 05:12:13;;;;;;;10.40;7.13;;;9.40;99.90;;;;;;5060669;28;21019;-60
2023/10/25 05:14:39;;;;;;;10.20;6.63;;;9.40;99.90;;;;;;5064819;28;20669;-59
2023/10/25 05:17:06;;;;;;;14.13;7.43;;;9.40;99.90;;;;;;5066875;28;20424;-61
2023/10/25 05:19:32;;;;;;;13.10;7.60;;;9.40;99.90;;;;;;5063301;28;20543;-61
2023/10/25 05:22:01;;;;;;;12.90;6.87;;;9.40;99.90;;;;;;5058495;28;20468;-60
2023/10/25 05:24:27;;;;;;;11.70;7.90;;;9.50;99.90;;;;;;5064983;28;20478;-59
2023/10/25 05:26:52;;;;;;;11.77;8.87;;;9.50;99.90;;;;;;5064597;28;20424;-60
2023/10/25 05:29:18;;;;;;;12.40;9.40;;;9.50;99.90;;;;;;5061371;28;20286;-59
2023/10/25 05:31:44;;;;;;;14.87;10.07;;;9.50;99.90;;;;;;5064497;28;20170;-59
2023/10/25 05:34:10;;;;;;;17.30;9.70;;;9.50;99.90;;;;;;5064459;28;20227;-61
2023/10/25 05:36:39;;;;;;;18.23;9.30;;;9.50;99.90;;;;;;5066191;28;20178;-59
2023/10/25 05:39:06;;;;;;;16.60;9.60;;;9.50;99.90;;;;;;5066720;28;20986;-61
2023/10/25 05:41:36;;;;;;;9.67;7.10;;;9.60;99.90;;;;;;5062239;28;20471;-59
2023/10/25 05:44:09;;;;;;;11.80;8.13;;;9.60;99.90;;;;;;5067154;28;20946;-59
2023/10/25 05:46:34;;;;;;;13.27;8.60;;;9.60;99.90;;;;;;5067565;28;20557;-59
2023/10/25 05:49:00;;;;;;;27.93;10.80;;;9.60;99.90;;;;;;5067497;28;20572;-60
2023/10/25 05:51:26;;;;;;;13.20;8.93;;;9.60;99.90;;;;;;5055568;28;20612;-59
2023/10/25 05:53:52;;;;;;;15.63;8.50;;;9.60;99.90;;;;;;5068065;28;20220;-58
2023/10/25 05:56:18;;;;;;;15.07;10.47;;;9.60;99.90;;;;;;5064674;28;20436;-59
2023/10/25 05:58:45;;;;;;;14.23;9.20;;;9.60;99.90;;;;;;5066276;28;20174;-59
2023/10/25 06:01:13;;;;;;;15.33;9.40;;;9.60;99.90;;;;;;5064554;28;20445;-60
2023/10/25 06:03:44;;;;;;;10.37;7.13;;;9.60;99.90;;;;;;5066480;28;20470;-59
2023/10/25 06:06:12;;;;;;;11.50;8.77;;;9.60;99.90;;;;;;5068001;28;20420;-60
2023/10/25 06:08:38;;;;;;;13.50;7.83;;;9.60;99.90;;;;;;5059541;28;20587;-60
2023/10/25 06:11:05;;;;;;;11.83;7.33;;;9.60;99.90;;;;;;5064523;28;20540;-59
2023/10/25 06:13:31;;;;;;;16.73;9.13;;;9.60;99.90;;;;;;5065214;28;20189;-59
2023/10/25 06:15:56;;;;;;;12.60;8.23;;;9.60;99.90;;;;;;5062504;28;20797;-60
2023/10/25 06:18:22;;;;;;;12.60;8.40;;;9.60;99.90;;;;;;5055767;28;20425;-60
2023/10/25 06:20:48;;;;;;;15.80;8.97;;;9.60;99.90;;;;;;5063403;28;20568;-60
2023/10/25 06:23:14;;;;;;;14.90;8.80;;;9.70;99.90;;;;;;5064680;28;20455;-59
2023/10/25 06:25:39;;;;;;;11.83;8.30;;;9.70;99.90;;;;;;5064178;28;20721;-59
2023/10/25 06:28:07;;;;;;;11.00;7.97;;;9.70;99.90;;;;;;5065135;28;20182;-60
2023/10/25 06:30:33;;;;;;;17.20;8.80;;;9.70;99.90;;;;;;5064077;28;20262;-60
2023/10/25 06:32:59;;;;;;;12.90;8.17;;;9.70;99.90;;;;;;5066658;28;20507;-60
2023/10/25 06:35:25;;;;;;;13.20;9.00;;;9.70;99.90;;;;;;5059378;28;21085;-61
2023/10/25 06:37:51;;;;;;;16.13;8.67;;;9.70;99.90;;;;;;5060104;28;20508;-59
2023/10/25 06:40:17;;;;;;;18.40;9.67;;;9.70;99.90;;;;;;5064108;28;20248;-57
2023/10/25 06:42:43;;;;;;;12.10;8.67;;;9.70;99.90;;;;;;5061355;28;20424;-59
2023/10/25 06:45:15;;;;;;;12.90;8.40;;;9.70;99.90;;;;;;5061855;28;20467;-59
2023/10/25 06:47:42;;;;;;;13.87;8.00;;;9.70;99.90;;;;;;5061385;28;20462;-60
2023/10/25 06:50:14;;;;;;;12.67;7.10;;;9.70;99.90;;;;;;5053591;28;20499;-58
2023/10/25 06:52:40;;;;;;;13.73;8.83;;;9.70;99.90;;;;;;5059271;28;20965;-57
2023/10/25 06:55:06;;;;;;;11.50;7.77;;;9.70;99.90;;;;;;5058528;28;20447;-59
2023/10/25 06:57:32;;;;;;;12.00;7.87;;;9.70;99.90;;;;;;5062281;28;20509;-57
2023/10/25 06:59:59;;;;;;;13.13;7.77;;;9.70;99.90;;;;;;5063116;28;20440;-57
2023/10/25 07:02:39;;;;;;;10.70;7.93;;;9.70;99.90;;;;;;5065619;28;20417;-58
2023/10/25 07:05:13;;;;;;;15.00;7.60;;;9.70;99.90;;;;;;5062830;28;20429;-57
2023/10/25 07:07:40;;;;;;;14.63;8.60;;;9.70;99.90;;;;;;5063525;28;20428;-57
2023/10/25 07:10:10;;;;;;;11.67;7.70;;;9.70;99.90;;;;;;5065267;28;20516;-57
2023/10/25 07:12:36;;;;;;;12.27;8.57;;;9.70;99.90;;;;;;5062063;28;20521;-57
2023/10/25 07:15:03;;;;;;;18.40;8.80;;;9.80;99.90;;;;;;5060284;28;20420;-56
2023/10/25 07:17:29;;;;;;;14.33;9.30;;;9.80;99.90;;;;;;5066059;28;20440;-58
2023/10/25 07:19:55;;;;;;;14.40;9.83;;;9.90;99.90;;;;;;5063905;28;20935;-57
2023/10/25 07:22:20;;;;;;;12.67;8.87;;;9.90;99.90;;;;;;5063947;28;20178;-58
2023/10/25 07:24:46;;;;;;;14.30;9.20;;;9.90;99.90;;;;;;5064228;28;20424;-57
2023/10/25 07:27:12;;;;;;;14.53;9.10;;;9.90;99.90;;;;;;5064023;28;20182;-58
2023/10/25 07:29:39;;;;;;;14.87;9.00;;;10.00;99.90;;;;;;5064155;28;20214;-57
2023/10/25 07:32:05;;;;;;;11.67;8.30;;;10.10;99.90;;;;;;5063220;28;20673;-57
2023/10/25 07:34:30;;;;;;;10.07;7.53;;;10.10;99.90;;;;;;5066397;28;20416;-58
2023/10/25 07:36:56;;;;;;;9.73;7.33;;;10.10;99.90;;;;;;5067736;28;20423;-59
2023/10/25 07:39:22;;;;;;;9.23;7.17;;;10.20;99.90;;;;;;5065778;28;20201;-57
2023/10/25 07:41:47;;;;;;;11.60;7.80;;;10.20;99.90;;;;;;5064658;28;20183;-57
2023/10/25 07:44:13;;;;;;;10.97;6.87;;;10.20;99.90;;;;;;5065330;28;20175;-59
2023/10/25 07:46:39;;;;;;;9.00;6.60;;;10.20;99.90;;;;;;5065066;28;20179;-58
2023/10/25 07:49:04;;;;;;;8.93;6.50;;;10.20;99.90;;;;;;5066337;28;20198;-57
2023/10/25 07:51:30;;;;;;;9.57;7.10;;;10.20;99.90;;;;;;5060635;28;20187;-57
2023/10/25 07:53:56;;;;;;;8.97;7.00;;;10.20;99.90;;;;;;5064255;28;20177;-58
2023/10/25 07:56:22;;;;;;;11.90;6.47;;;10.30;99.90;;;;;;5063844;28;20569;-57
2023/10/25 07:58:48;;;;;;;9.70;7.17;;;10.30;99.90;;;;;;5063006;28;20182;-57
2023/10/25 08:01:14;;;;;;;10.30;6.63;;;10.30;99.90;;;;;;5054107;28;20457;-57
2023/10/25 08:03:39;;;;;;;8.87;7.33;;;10.40;99.90;;;;;;5062371;28;20183;-58
2023/10/25 08:06:05;;;;;;;7.40;5.67;;;10.40;99.90;;;;;;5065915;28;20662;-58
2023/10/25 08:08:32;;;;;;;8.63;6.70;;;10.40;99.90;;;;;;5068133;28;20170;-57
2023/10/25 08:11:05;;;;;;;9.00;7.00;;;10.50;99.90;;;;;;5067387;28;20459;-57
2023/10/25 08:13:33;;;;;;;11.43;7.20;;;10.60;99.90;;;;;;5064806;28;20804;-58
2023/10/25 08:16:00;;;;;;;8.33;6.27;;;10.70;99.90;;;;;;5069018;28;20429;-58
2023/10/25 08:18:30;;;;;;;7.13;6.00;;;10.80;99.90;;;;;;5067616;28;20507;-59
2023/10/25 08:20:57;;;;;;;8.77;6.80;;;10.80;99.90;;;;;;5067048;28;20436;-58
2023/10/25 08:23:23;;;;;;;8.20;6.07;;;10.90;99.90;;;;;;5069406;28;20445;-58
2023/10/25 08:25:50;;;;;;;8.53;5.70;;;11.00;99.90;;;;;;5067588;28;20463;-58
2023/10/25 08:28:17;;;;;;;6.80;5.60;;;11.00;99.90;;;;;;5066823;28;20170;-57
2023/10/25 08:30:42;;;;;;;7.73;5.33;;;11.00;99.90;;;;;;5058962;28;20491;-58
2023/10/25 08:33:08;;;;;;;9.30;5.50;;;11.00;99.90;;;;;;5069221;28;20459;-57
2023/10/25 08:35:34;;;;;;;6.90;5.67;;;11.00;99.90;;;;;;5060458;28;20253;-57
2023/10/25 08:37:59;;;;;;;6.30;4.80;;;11.00;99.90;;;;;;5062364;28;20170;-57
2023/10/25 08:40:25;;;;;;;5.53;4.60;;;11.00;99.90;;;;;;5064050;28;20252;-56
2023/10/25 08:42:51;;;;;;;5.20;4.53;;;11.10;99.90;;;;;;5068704;28;20171;-57
2023/10/25 08:45:17;;;;;;;6.53;4.43;;;11.10;99.90;;;;;;5065355;28;20202;-57
2023/10/25 08:47:43;;;;;;;4.70;4.17;;;11.20;99.90;;;;;;5058301;28;20211;-56
2023/10/25 08:50:10;;;;;;;6.37;4.00;;;11.30;99.90;;;;;;5065482;28;20460;-57
2023/10/25 08:52:42;;;;;;;4.97;3.90;;;11.50;99.90;;;;;;5063415;28;20872;-57
2023/10/25 08:55:09;;;;;;;9.20;3.97;;;11.60;99.90;;;;;;5059159;28;20816;-57
2023/10/25 08:57:37;;;;;;;5.70;4.53;;;11.70;99.90;;;;;;5066148;28;20443;-57
2023/10/25 09:00:07;;;;;;;5.03;3.90;;;11.80;99.90;;;;;;5062718;28;20445;-57
2023/10/25 09:02:36;;;;;;;4.27;3.87;;;11.90;99.90;;;;;;5063059;28;20540;-57
2023/10/25 09:05:03;;;;;;;7.20;4.47;;;11.90;99.90;;;;;;5064780;28;20437;-58
2023/10/25 09:07:34;;;;;;;6.13;4.40;;;11.90;99.90;;;;;;5067116;28;20439;-58
2023/10/25 09:10:03;;;;;;;5.00;3.67;;;11.90;99.90;;;;;;5067024;28;21119;-58
2023/10/25 09:12:29;;;;;;;5.67;4.57;;;11.90;99.90;;;;;;5067276;28;20811;-57
2023/10/25 09:14:55;;;;;;;4.10;3.70;;;11.90;99.90;;;;;;5061810;28;21008;-57
2023/10/25 09:17:20;;;;;;;4.43;4.03;;;12.00;99.90;;;;;;5064104;28;20429;-57
2023/10/25 09:19:50;;;;;;;4.77;3.77;;;12.00;99.90;;;;;;5066285;28;20307;-58
2023/10/25 09:22:30;;;;;;;10.57;4.17;;;11.90;99.90;;;;;;5061267;28;20456;-58
2023/10/25 09:25:00;;;;;;;6.83;4.20;;;11.90;99.90;;;;;;5059306;28;20443;-57
2023/10/25 09:27:26;;;;;;;5.07;4.53;;;11.90;99.90;;;;;;5061933;28;20435;-57
2023/10/25 09:29:53;;;;;;;5.73;4.73;;;12.00;99.90;;;;;;5062854;28;20567;-57
2023/10/25 09:32:21;;;;;;;5.50;4.57;;;12.00;99.90;;;;;;5061721;28;20463;-56
2023/10/25 09:34:48;;;;;;;4.63;4.13;;;12.00;99.90;;;;;;5061828;28;20429;-56
2023/10/25 09:37:13;;;;;;;5.77;3.67;;;12.10;99.90;;;;;;5067547;28;20417;-57
2023/10/25 09:39:39;;;;;;;4.83;4.27;;;12.20;99.90;;;;;;5063374;28;20479;-57
2023/10/25 09:42:09;;;;;;;4.70;3.97;;;12.40;99.90;;;;;;5061910;28;20185;-58
2023/10/25 09:44:40;;;;;;;3.30;3.00;;;12.40;99.90;;;;;;5063750;28;20873;-57
2023/10/25 09:47:10;;;;;;;7.37;3.87;;;12.50;99.90;;;;;;5062691;28;20435;-58
2023/10/25 09:49:45;;;;;;;5.63;4.00;;;12.50;99.90;;;;;;5063058;28;21016;-58
2023/10/25 09:52:24;;;;;;;5.27;3.53;;;12.50;99.90;;;;;;5063359;28;20428;-57
2023/10/25 09:54:51;;;;;;;4.50;3.93;;;12.50;99.90;;;;;;5058196;28;20417;-57
2023/10/25 09:57:18;;;;;;;4.57;4.00;;;12.50;99.90;;;;;;5061344;28;20429;-57
2023/10/25 09:59:45;;;;;;;7.73;4.70;;;12.50;99.90;;;;;;5058277;28;20452;-57
2023/10/25 10:02:20;;;;;;;4.43;4.00;;;12.40;99.90;;;;;;5060621;28;20428;-57
2023/10/25 10:05:10;;;;;;;4.27;3.87;;;12.30;99.90;;;;;;5065297;28;20423;-57
2023/10/25 10:08:03;;;;;;;4.33;3.80;;;12.30;99.90;;;;;;5065145;28;20436;-57
2023/10/25 10:10:34;;;;;;;6.50;4.10;;;12.10;99.90;;;;;;5062387;28;20472;-58
2023/10/25 10:12:59;;;;;;;5.17;4.33;;;12.10;99.90;;;;;;5064085;28;20425;-56
2023/10/25 10:16:01;;;;;;;5.47;4.50;;;12.00;99.90;;;;;;5064608;28;20417;-57
2023/10/25 10:18:42;;;;;;;6.47;4.93;;;12.00;99.90;;;;;;5061800;28;20259;-57
2023/10/25 10:21:10;;;;;;;5.60;4.67;;;12.10;99.90;;;;;;5065039;28;20463;-59
2023/10/25 10:23:49;;;;;;;6.60;4.93;;;12.20;99.90;;;;;;5068165;28;20454;-58
2023/10/25 10:26:44;;;;;;;5.60;4.47;;;12.30;99.90;;;;;;5061111;28;20513;-57
2023/10/25 10:29:31;;;;;;;10.00;4.30;;;12.30;99.90;;;;;;5061294;28;20463;-56
2023/10/25 10:31:58;;;;;;;6.80;4.30;;;12.30;99.90;;;;;;5064017;28;20432;-57
2023/10/25 10:34:40;;;;;;;5.13;4.53;;;12.30;99.90;;;;;;5065654;28;20437;-58
2023/10/25 10:37:08;;;;;;;6.63;4.67;;;12.20;99.90;;;;;;5061082;28;20475;-58
2023/10/25 10:39:34;;;;;;;6.50;5.33;;;12.20;99.90;;;;;;5056214;28;20469;-58
2023/10/25 10:42:01;;;;;;;7.63;4.27;;;12.10;99.90;;;;;;5060605;28;20443;-57
2023/10/25 10:44:28;;;;;;;5.40;4.40;;;12.10;99.90;;;;;;5059715;28;20178;-59
2023/10/25 10:46:58;;;;;;;5.47;4.57;;;12.10;99.90;;;;;;5063275;28;20432;-58
2023/10/25 10:49:29;;;;;;;4.87;4.10;;;12.10;99.90;;;;;;5062933;28;20456;-58
2023/10/25 10:51:55;;;;;;;5.13;4.10;;;12.10;99.90;;;;;;5064642;28;20439;-57
2023/10/25 10:54:21;;;;;;;5.07;4.10;;;12.10;99.90;;;;;;5059873;28;20424;-57
2023/10/25 10:56:47;;;;;;;12.33;8.17;;;12.20;99.90;;;;;;5062408;28;20175;-57
2023/10/25 10:59:13;;;;;;;5.70;4.87;;;12.20;99.90;;;;;;5060743;28;20589;-57
2023/10/25 11:01:38;;;;;;;5.90;3.90;;;12.30;99.90;;;;;;5063238;28;20433;-58
2023/10/25 11:04:05;;;;;;;4.17;3.50;;;12.40;99.90;;;;;;5055533;28;20558;-59
2023/10/25 11:06:30;;;;;;;4.13;3.73;;;12.50;99.90;;;;;;5066118;28;20186;-58
2023/10/25 11:09:00;;;;;;;5.80;3.50;;;12.60;99.90;;;;;;5065425;28;20456;-57
2023/10/25 11:11:26;;;;;;;3.30;2.80;;;12.70;99.90;;;;;;5063494;28;21032;-57
2023/10/25 11:13:51;;;;;;;2.93;2.73;;;12.90;99.90;;;;;;5063405;28;20517;-58
2023/10/25 11:16:17;;;;;;;3.43;2.80;;;13.10;99.90;;;;;;5064225;28;20456;-58
2023/10/25 11:18:43;;;;;;;3.03;2.73;;;13.50;99.90;;;;;;5066112;28;20659;-58
2023/10/25 11:21:11;;;;;;;2.93;2.70;;;13.80;99.90;;;;;;5060248;28;20448;-58
2023/10/25 11:23:36;;;;;;;2.87;2.67;;;14.20;99.90;;;;;;5066328;28;20208;-59
2023/10/25 11:26:04;;;;;;;3.20;2.90;;;14.40;99.90;;;;;;5067588;28;20466;-58
2023/10/25 11:28:30;;;;;;;3.27;2.97;;;14.60;99.90;;;;;;5063989;28;20201;-57
2023/10/25 11:31:02;;;;;;;2.90;2.60;;;14.80;99.90;;;;;;5063013;28;21116;-58
2023/10/25 11:33:28;;;;;;;2.50;2.30;;;14.80;99.90;;;;;;5061872;28;20678;-58
2023/10/25 11:35:54;;;;;;;3.00;2.70;;;14.70;99.90;;;;;;5056723;28;20467;-58
2023/10/25 11:38:20;;;;;;;3.00;2.70;;;14.60;99.90;;;;;;5057068;28;20250;-58
2023/10/25 11:40:46;;;;;;;3.17;2.70;;;14.60;99.90;;;;;;5068231;28;20511;-58
2023/10/25 11:43:13;;;;;;;3.40;2.50;;;14.60;99.90;;;;;;5069773;28;20182;-58
2023/10/25 11:45:40;;;;;;;3.10;2.60;;;14.40;99.90;;;;;;5067147;28;20436;-59
2023/10/25 11:48:07;;;;;;;2.27;2.07;;;14.20;99.90;;;;;;5068466;28;20424;-58
2023/10/25 11:50:33;;;;;;;2.63;2.43;;;14.10;99.90;;;;;;5068841;28;20559;-58
2023/10/25 11:52:59;;;;;;;3.37;3.10;;;14.00;99.90;;;;;;5067323;28;20594;-58
2023/10/25 11:55:25;;;;;;;4.30;2.60;;;13.90;99.90;;;;;;5063044;28;20472;-57
2023/10/25 11:57:51;;;;;;;2.73;2.50;;;13.90;99.90;;;;;;5065532;28;20173;-58
2023/10/25 12:00:17;;;;;;;3.53;2.47;;;14.10;99.90;;;;;;5066574;28;20453;-58
2023/10/25 12:02:43;;;;;;;2.77;2.53;;;14.30;99.90;;;;;;5057016;28;20183;-57
2023/10/25 12:05:09;;;;;;;2.70;2.50;;;14.30;99.90;;;;;;5064148;28;20941;-58
2023/10/25 12:07:36;;;;;;;2.37;2.17;;;14.20;99.90;;;;;;5066047;28;20509;-57
2023/10/25 12:10:04;;;;;;;2.27;2.10;;;14.00;99.90;;;;;;5069892;28;20471;-57
2023/10/25 12:12:30;;;;;;;3.00;2.70;;;13.90;99.90;;;;;;5065562;28;20444;-57
2023/10/25 12:14:56;;;;;;;5.00;2.73;;;13.70;99.90;;;;;;5066600;28;20433;-57
2023/10/25 12:17:22;;;;;;;2.70;2.10;;;13.60;99.90;;;;;;5068766;28;20428;-57
2023/10/25 12:19:50;;;;;;;2.50;2.30;;;13.50;99.90;;;;;;5066750;28;20211;-57
2023/10/25 12:22:16;;;;;;;2.63;2.43;;;13.50;99.90;;;;;;5069144;28;20182;-57
2023/10/25 12:24:43;;;;;;;3.30;2.73;;;13.50;99.90;;;;;;5068414;28;20437;-58
2023/10/25 12:27:09;;;;;;;2.80;2.50;;;13.60;99.90;;;;;;5068841;28;20978;-58
2023/10/25 12:29:35;;;;;;;2.83;2.63;;;13.70;99.90;;;;;;5066320;28;20496;-58
2023/10/25 12:32:03;;;;;;;5.40;3.33;;;13.70;99.90;;;;;;5066513;28;20181;-58
2023/10/25 12:34:29;;;;;;;3.33;2.50;;;13.70;99.90;;;;;;5069823;28;20791;-58
2023/10/25 12:36:54;;;;;;;2.67;2.47;;;13.70;99.90;;;;;;5069026;28;20432;-59
2023/10/25 12:39:20;;;;;;;3.30;3.10;;;13.60;99.90;;;;;;5062142;28;20187;-58
2023/10/25 12:41:46;;;;;;;3.67;2.90;;;13.60;99.90;;;;;;5067136;28;20287;-59
2023/10/25 12:44:13;;;;;;;3.40;3.10;;;13.60;99.90;;;;;;5064523;28;20444;-59
2023/10/25 12:46:39;;;;;;;3.57;3.13;;;13.60;99.90;;;;;;5064309;28;20228;-59
2023/10/25 12:49:05;;;;;;;12.77;3.47;;;13.90;99.90;;;;;;5068085;28;21410;-59
2023/10/25 12:51:31;;;;;;;3.50;2.70;;;14.10;99.90;;;;;;5064391;28;20453;-58